createdAt,value
2023-02-17T00:00:56.570Z,65.40
2023-02-17T00:03:24.701Z,65.00
2023-02-17T00:05:54.695Z,67.50
2023-02-17T00:08:22.753Z,66.80
2023-02-17T00:10:58.385Z,66.90
2023-02-17T00:13:26.434Z,67.10
2023-02-17T00:15:55.315Z,65.80
2023-02-17T00:18:23.718Z,67.60
2023-02-17T00:20:52.274Z,66.10
2023-02-17T00:23:21.733Z,67.80
2023-02-17T00:25:50.479Z,67.40
2023-02-17T00:28:18.616Z,66.60
2023-02-17T00:30:47.340Z,67.00
2023-02-17T00:33:15.412Z,67.50
2023-02-17T00:35:43.947Z,67.80
2023-02-17T00:38:12.013Z,71.00
2023-02-17T00:40:42.575Z,69.60
2023-02-17T00:43:11.022Z,69.00
2023-02-17T00:45:39.239Z,68.30
2023-02-17T00:48:07.690Z,68.00
2023-02-17T00:50:35.717Z,67.60
2023-02-17T00:53:06.596Z,69.80
2023-02-17T00:55:34.743Z,69.20
2023-02-17T00:58:04.372Z,68.80
2023-02-17T01:00:32.862Z,69.20
2023-02-17T01:03:02.177Z,69.00
2023-02-17T01:05:30.630Z,67.60
2023-02-17T01:07:58.723Z,68.10
2023-02-17T01:10:28.875Z,68.50
2023-02-17T01:12:57.418Z,68.60
2023-02-17T01:15:27.202Z,69.80
2023-02-17T01:17:55.192Z,68.40
2023-02-17T01:20:23.656Z,70.20
2023-02-17T01:22:51.691Z,68.80
2023-02-17T01:25:20.289Z,70.10
2023-02-17T01:27:48.469Z,70.80
2023-02-17T01:30:17.304Z,68.80
2023-02-17T01:32:48.232Z,68.20
2023-02-17T01:35:16.749Z,68.30
2023-02-17T01:37:46.154Z,68.50
2023-02-17T01:40:15.505Z,70.00
2023-02-17T01:42:43.531Z,68.70
2023-02-17T01:45:39.159Z,68.50
2023-02-17T01:48:10.969Z,68.80
2023-02-17T01:50:41.938Z,67.90
2023-02-17T01:53:10.456Z,71.60
2023-02-17T01:55:39.832Z,69.20
2023-02-17T01:58:08.995Z,68.30
2023-02-17T02:00:37.932Z,68.50
2023-02-17T02:03:13.894Z,68.30
2023-02-17T02:05:42.897Z,68.90
2023-02-17T02:08:11.689Z,68.70
2023-02-17T02:10:40.074Z,67.60
2023-02-17T02:13:08.682Z,68.10
2023-02-17T02:15:40.167Z,69.50
2023-02-17T02:18:23.712Z,69.70
2023-02-17T02:21:08.713Z,68.80
2023-02-17T02:23:53.677Z,67.90
2023-02-17T02:26:34.653Z,68.30
2023-02-17T02:29:17.196Z,69.80
2023-02-17T02:31:47.100Z,69.70
2023-02-17T02:34:18.056Z,68.90
2023-02-17T02:36:49.692Z,69.80
2023-02-17T02:39:18.907Z,68.40
2023-02-17T02:41:48.881Z,70.80
2023-02-17T02:44:19.744Z,70.40
2023-02-17T02:46:56.846Z,70.30
2023-02-17T02:49:26.810Z,70.10
2023-02-17T02:51:56.380Z,68.60
2023-02-17T02:54:30.726Z,70.50
2023-02-17T02:57:21.603Z,69.40
2023-02-17T02:59:59.567Z,70.30
2023-02-17T03:02:30.614Z,69.40
2023-02-17T03:05:02.812Z,68.70
2023-02-17T03:07:32.756Z,69.00
2023-02-17T03:10:01.869Z,69.10
2023-02-17T03:12:31.204Z,69.70
2023-02-17T03:15:02.045Z,69.00
2023-02-17T03:17:31.606Z,68.30
2023-02-17T03:20:02.664Z,69.10
2023-02-17T03:22:34.684Z,68.70
2023-02-17T03:25:03.269Z,68.80
2023-02-17T03:27:31.666Z,71.40
2023-02-17T03:30:00.110Z,69.70
2023-02-17T03:32:28.688Z,72.40
2023-02-17T03:34:56.784Z,69.70
2023-02-17T03:37:26.966Z,68.80
2023-02-17T03:39:55.042Z,69.40
2023-02-17T03:42:23.525Z,69.10
2023-02-17T03:44:51.765Z,69.00
2023-02-17T03:47:20.173Z,68.10
2023-02-17T03:49:48.231Z,68.30
2023-02-17T03:52:16.732Z,67.60
2023-02-17T03:54:46.359Z,67.70
2023-02-17T03:57:14.770Z,67.30
2023-02-17T03:59:42.795Z,67.20
2023-02-17T04:02:11.303Z,67.40
2023-02-17T04:04:39.493Z,67.50
2023-02-17T04:07:07.917Z,67.60
2023-02-17T04:09:36.028Z,66.90
2023-02-17T04:12:06.356Z,67.20
2023-02-17T04:14:34.837Z,66.40
2023-02-17T04:17:03.090Z,66.40
2023-02-17T04:19:31.167Z,67.00
2023-02-17T04:21:59.588Z,67.10
2023-02-17T04:24:27.670Z,67.70
2023-02-17T04:26:55.802Z,66.70
2023-02-17T04:29:25.188Z,66.80
2023-02-17T04:31:53.949Z,68.60
2023-02-17T04:34:22.076Z,67.30
2023-02-17T04:36:50.522Z,67.60
2023-02-17T04:39:18.649Z,67.30
2023-02-17T04:41:47.176Z,66.20
2023-02-17T04:44:15.239Z,66.60
2023-02-17T04:46:45.015Z,66.10
2023-02-17T04:49:13.136Z,66.50
2023-02-17T04:51:41.450Z,66.40
2023-02-17T04:54:09.549Z,66.70
2023-02-17T04:56:37.986Z,66.50
2023-02-17T04:59:06.042Z,66.70
2023-02-17T05:01:34.465Z,66.10
2023-02-17T05:04:03.863Z,65.70
2023-02-17T05:06:32.378Z,65.80
2023-02-17T05:09:01.108Z,65.80
2023-02-17T05:11:29.717Z,66.40
2023-02-17T05:13:58.033Z,66.60
2023-02-17T05:16:26.296Z,66.40
2023-02-17T05:18:54.773Z,66.30
2023-02-17T05:21:24.210Z,66.50
2023-02-17T05:23:52.848Z,67.60
2023-02-17T05:26:20.897Z,67.80
2023-02-17T05:28:49.357Z,67.00
2023-02-17T05:31:17.512Z,67.20
2023-02-17T05:33:46.283Z,67.60
2023-02-17T05:36:14.362Z,67.40
2023-02-17T05:38:46.317Z,67.70
2023-02-17T05:41:14.368Z,67.90
2023-02-17T05:43:43.044Z,68.10
2023-02-17T05:46:11.290Z,68.30
2023-02-17T05:48:39.883Z,70.40
2023-02-17T05:51:08.994Z,68.70
2023-02-17T05:53:37.707Z,69.20
2023-02-17T05:56:07.889Z,69.00
2023-02-17T05:58:36.853Z,69.70
2023-02-17T06:01:08.304Z,69.50
2023-02-17T06:03:36.912Z,69.80
2023-02-17T06:06:05.524Z,70.40
2023-02-17T06:08:34.342Z,70.70
2023-02-17T06:11:04.374Z,71.10
2023-02-17T06:13:34.384Z,72.20
2023-02-17T06:16:02.576Z,72.50
2023-02-17T06:18:30.945Z,74.00
2023-02-17T06:20:59.220Z,75.10
2023-02-17T06:23:28.051Z,77.70
2023-02-17T06:25:56.117Z,78.30
2023-02-17T06:28:24.861Z,79.50
2023-02-17T06:30:54.358Z,80.80
2023-02-17T06:33:23.066Z,82.40
2023-02-17T06:35:51.369Z,83.40
2023-02-17T06:38:19.789Z,83.50
2023-02-17T06:40:48.322Z,83.60
2023-02-17T06:43:18.430Z,84.00
2023-02-17T06:45:47.029Z,83.60
2023-02-17T06:48:16.473Z,83.00
2023-02-17T06:50:45.111Z,82.40
2023-02-17T06:53:13.329Z,83.40
2023-02-17T06:55:41.886Z,82.90
2023-02-17T06:58:09.952Z,82.70
2023-02-17T07:00:38.523Z,82.00
2023-02-17T07:03:06.705Z,82.00
2023-02-17T07:05:37.147Z,82.60
2023-02-17T07:08:05.503Z,82.90
2023-02-17T07:10:33.935Z,82.90
2023-02-17T07:13:02.072Z,83.30
2023-02-17T07:15:30.099Z,83.80
2023-02-17T07:17:58.413Z,84.20
2023-02-17T07:20:26.495Z,84.10
2023-02-17T07:22:56.343Z,84.00
2023-02-17T07:25:24.348Z,83.80
2023-02-17T07:27:52.968Z,84.50
2023-02-17T07:30:21.121Z,84.80
2023-02-17T07:32:49.505Z,85.00
2023-02-17T07:35:18.031Z,85.70
2023-02-17T07:37:46.846Z,85.20
2023-02-17T07:40:16.215Z,85.30
2023-02-17T07:42:44.798Z,85.70
2023-02-17T07:45:12.911Z,85.20
2023-02-17T07:47:41.407Z,85.60
2023-02-17T07:50:09.952Z,85.60
2023-02-17T07:52:41.088Z,85.30
2023-02-17T07:55:09.261Z,84.90
2023-02-17T07:57:39.347Z,84.80
2023-02-17T08:00:10.557Z,85.60
2023-02-17T08:02:42.455Z,86.40
2023-02-17T08:05:10.505Z,87.10
2023-02-17T08:07:38.769Z,87.80
2023-02-17T08:10:24.327Z,88.30
2023-02-17T08:13:19.560Z,87.60
2023-02-17T08:15:47.632Z,86.90
2023-02-17T08:18:15.952Z,87.90
2023-02-17T08:20:44.126Z,87.50
2023-02-17T08:23:12.236Z,88.20
2023-02-17T08:25:40.522Z,89.80
2023-02-17T08:28:12.321Z,90.70
2023-02-17T08:30:40.728Z,92.20
2023-02-17T08:33:08.883Z,93.40
2023-02-17T08:35:37.316Z,94.10
2023-02-17T08:38:05.378Z,93.60
2023-02-17T08:40:33.986Z,93.70
2023-02-17T08:43:03.607Z,92.70
2023-02-17T08:45:34.102Z,92.30
2023-02-17T08:48:02.141Z,92.00
2023-02-17T08:50:31.074Z,92.50
2023-02-17T08:52:59.182Z,92.90
2023-02-17T08:55:28.349Z,93.30
2023-02-17T08:57:57.608Z,94.00
2023-02-17T09:00:26.204Z,95.10
2023-02-17T09:02:55.740Z,95.00
2023-02-17T09:05:24.266Z,95.20
2023-02-17T09:07:52.379Z,95.30
2023-02-17T09:10:20.907Z,96.00
2023-02-17T09:12:49.040Z,95.80
2023-02-17T09:15:17.562Z,96.10
2023-02-17T09:17:45.662Z,96.40
2023-02-17T09:20:24.460Z,96.30
2023-02-17T09:22:53.404Z,96.50
2023-02-17T09:25:21.589Z,96.40
2023-02-17T09:27:49.876Z,97.20
2023-02-17T09:30:18.632Z,97.10
2023-02-17T09:32:46.818Z,97.30
2023-02-17T09:35:17.472Z,97.20
2023-02-17T09:37:45.606Z,97.30
2023-02-17T09:40:18.741Z,97.10
2023-02-17T09:42:46.923Z,97.50
2023-02-17T09:45:17.208Z,97.50
2023-02-17T09:47:48.064Z,97.70
2023-02-17T09:50:18.310Z,97.10
2023-02-17T09:52:53.819Z,97.70
2023-02-17T09:55:24.679Z,96.90
2023-02-17T09:57:56.879Z,96.70
2023-02-17T10:00:26.728Z,96.60
2023-02-17T10:02:59.207Z,96.10
2023-02-17T10:05:31.040Z,95.50
2023-02-17T10:08:03.046Z,95.90
2023-02-17T10:10:35.703Z,95.70
2023-02-17T10:13:05.618Z,95.30
2023-02-17T10:15:36.618Z,95.20
2023-02-17T10:18:07.466Z,95.00
2023-02-17T10:20:41.028Z,94.10
2023-02-17T10:23:11.993Z,93.80
2023-02-17T10:25:47.961Z,93.30
2023-02-17T10:28:19.640Z,93.20
2023-02-17T10:30:54.036Z,93.20
2023-02-17T10:33:24.860Z,92.90
2023-02-17T10:35:57.143Z,92.20
2023-02-17T10:38:34.627Z,91.40
2023-02-17T10:41:04.574Z,90.10
2023-02-17T10:43:33.521Z,86.90
2023-02-17T10:46:02.950Z,84.10
2023-02-17T10:48:35.041Z,83.90
2023-02-17T10:51:04.558Z,82.50
2023-02-17T10:53:34.161Z,78.90
2023-02-17T10:56:04.921Z,77.20
2023-02-17T10:58:34.892Z,78.10
2023-02-17T11:01:05.650Z,78.80
2023-02-17T11:03:34.691Z,79.80
2023-02-17T11:06:05.566Z,79.80
2023-02-17T11:08:35.894Z,81.20
2023-02-17T11:11:05.518Z,81.50
2023-02-17T11:13:39.425Z,81.20
2023-02-17T11:16:08.013Z,80.40
2023-02-17T11:18:39.011Z,81.30
2023-02-17T11:21:09.730Z,82.60
2023-02-17T11:23:47.893Z,82.50
2023-02-17T11:26:18.517Z,81.40
2023-02-17T11:28:47.157Z,81.70
2023-02-17T11:31:23.888Z,80.60
2023-02-17T11:33:52.466Z,80.20
2023-02-17T11:36:26.237Z,78.40
2023-02-17T11:38:55.199Z,77.70
2023-02-17T11:41:23.348Z,78.80
2023-02-17T11:43:55.213Z,79.70
2023-02-17T11:46:26.590Z,79.70
2023-02-17T11:49:08.463Z,81.50
2023-02-17T11:51:46.410Z,83.00
2023-02-17T11:54:22.213Z,82.20
2023-02-17T11:56:57.482Z,82.70
2023-02-17T11:59:33.480Z,83.20
2023-02-17T12:02:12.368Z,83.50
2023-02-17T12:04:43.105Z,83.70
2023-02-17T12:07:21.524Z,84.50
2023-02-17T12:09:56.088Z,81.20
2023-02-17T12:12:27.885Z,78.50
2023-02-17T12:15:04.272Z,78.10
2023-02-17T12:17:38.924Z,79.80
2023-02-17T12:20:16.120Z,81.00
2023-02-17T12:22:48.091Z,82.20
2023-02-17T12:25:23.967Z,82.70
2023-02-17T12:28:01.086Z,83.60
2023-02-17T12:30:36.010Z,84.30
2023-02-17T12:33:11.424Z,84.20
2023-02-17T12:35:46.678Z,84.70
2023-02-17T12:38:18.323Z,85.70
2023-02-17T12:40:49.073Z,86.10
2023-02-17T12:43:22.948Z,85.70
2023-02-17T12:45:52.766Z,85.80
2023-02-17T12:48:26.067Z,86.40
2023-02-17T12:50:57.539Z,86.70
2023-02-17T12:53:32.533Z,86.40
2023-02-17T12:56:02.006Z,86.50
2023-02-17T12:58:30.824Z,86.30
2023-02-17T13:01:01.967Z,87.20
2023-02-17T13:03:30.621Z,87.10
2023-02-17T13:06:02.771Z,87.80
2023-02-17T13:08:37.631Z,88.70
2023-02-17T13:11:07.361Z,88.40
2023-02-17T13:13:35.957Z,89.20
2023-02-17T13:16:06.278Z,89.70
2023-02-17T13:18:35.718Z,90.30
2023-02-17T13:21:16.497Z,90.50
2023-02-17T13:23:46.836Z,90.80
2023-02-17T13:26:36.380Z,90.90
2023-02-17T13:29:10.465Z,91.40
2023-02-17T13:31:49.924Z,91.10
2023-02-17T13:34:28.701Z,91.50
2023-02-17T13:36:57.874Z,91.80
2023-02-17T13:39:35.011Z,92.10
2023-02-17T13:42:03.632Z,92.50
2023-02-17T13:44:33.721Z,92.00
2023-02-17T13:47:04.010Z,92.00
2023-02-17T13:49:35.100Z,92.30
2023-02-17T13:52:18.955Z,92.40
2023-02-17T13:54:58.502Z,92.50
2023-02-17T13:57:28.327Z,92.40
2023-02-17T14:00:06.067Z,92.40
2023-02-17T14:02:46.782Z,92.30
2023-02-17T14:05:19.120Z,92.30
2023-02-17T14:07:48.342Z,92.50
2023-02-17T14:10:19.614Z,92.60
2023-02-17T14:12:49.110Z,92.80
2023-02-17T14:15:17.662Z,93.40
2023-02-17T14:17:46.287Z,93.30
2023-02-17T14:20:28.366Z,93.40
2023-02-17T14:23:05.189Z,93.50
2023-02-17T14:25:35.728Z,93.50
2023-02-17T14:28:04.947Z,93.50
2023-02-17T14:30:34.052Z,93.60
2023-02-17T14:33:03.903Z,93.80
2023-02-17T14:35:33.865Z,94.00
2023-02-17T14:38:10.763Z,94.20
2023-02-17T14:40:40.368Z,94.00
2023-02-17T14:43:08.966Z,93.80
2023-02-17T14:45:37.001Z,93.90
2023-02-17T14:48:05.789Z,93.80
2023-02-17T14:50:33.947Z,93.80
2023-02-17T14:53:02.383Z,94.00
2023-02-17T14:55:34.177Z,93.80
2023-02-17T14:58:03.972Z,93.70
2023-02-17T15:00:32.802Z,93.80
2023-02-17T15:03:00.838Z,93.90
2023-02-17T15:05:30.044Z,93.50
2023-02-17T15:08:00.857Z,93.60
2023-02-17T15:10:30.331Z,93.90
2023-02-17T15:12:58.764Z,93.80
2023-02-17T15:15:29.134Z,93.90
2023-02-17T15:17:57.190Z,94.10
2023-02-17T15:20:25.994Z,94.10
2023-02-17T15:22:54.543Z,93.90
2023-02-17T15:25:23.453Z,94.00
2023-02-17T15:27:51.918Z,94.10
2023-02-17T15:30:21.361Z,94.20
2023-02-17T15:32:50.873Z,94.10
2023-02-17T15:35:20.810Z,94.00
2023-02-17T15:37:49.213Z,94.00
2023-02-17T15:40:19.432Z,93.90
2023-02-17T15:42:50.064Z,94.30
2023-02-17T15:45:20.496Z,94.70
2023-02-17T15:47:49.418Z,94.80
2023-02-17T15:50:20.704Z,94.90
2023-02-17T15:52:49.734Z,94.80
2023-02-17T15:55:19.160Z,95.10
2023-02-17T15:57:48.536Z,95.40
2023-02-17T16:00:19.024Z,95.50
2023-02-17T16:02:47.089Z,95.80
2023-02-17T16:05:16.178Z,96.10
2023-02-17T16:07:45.785Z,96.50
2023-02-17T16:10:15.932Z,96.80
2023-02-17T16:12:44.193Z,97.10
2023-02-17T16:15:14.604Z,97.50
2023-02-17T16:17:42.684Z,97.80
2023-02-17T16:20:18.852Z,98.00
2023-02-17T16:22:48.755Z,98.20
2023-02-17T16:25:18.124Z,98.50
2023-02-17T16:27:46.972Z,98.60
2023-02-17T16:30:17.394Z,98.60
2023-02-17T16:32:45.514Z,98.70
2023-02-17T16:35:14.879Z,98.70
2023-02-17T16:37:43.370Z,98.70
2023-02-17T16:40:17.528Z,98.70
2023-02-17T16:42:45.602Z,98.90
2023-02-17T16:45:33.343Z,99.00
2023-02-17T16:48:09.977Z,99.20
2023-02-17T16:50:42.023Z,99.30
2023-02-17T16:53:12.836Z,99.40
2023-02-17T16:55:43.042Z,99.40
2023-02-17T16:58:15.080Z,99.50
2023-02-17T17:00:44.040Z,99.70
2023-02-17T17:03:12.451Z,99.60
2023-02-17T17:05:42.794Z,99.80
2023-02-17T17:08:12.534Z,99.90
2023-02-17T17:10:41.968Z,99.90
2023-02-17T17:13:10.940Z,99.90
2023-02-17T17:15:40.993Z,99.90
2023-02-17T17:18:10.556Z,99.90
2023-02-17T17:20:41.687Z,99.90
2023-02-17T17:23:12.560Z,99.90
2023-02-17T17:25:43.224Z,99.90
2023-02-17T17:28:13.802Z,99.90
2023-02-17T17:30:41.988Z,99.90
2023-02-17T17:33:10.416Z,99.90
2023-02-17T17:35:38.697Z,99.90
2023-02-17T17:38:07.359Z,99.90
2023-02-17T17:40:48.170Z,99.90
2023-02-17T17:43:20.174Z,99.90
2023-02-17T17:45:48.786Z,99.90
2023-02-17T17:48:17.750Z,99.90
2023-02-17T17:50:46.185Z,99.90
2023-02-17T17:53:14.970Z,99.90
2023-02-17T17:55:43.065Z,99.90
2023-02-17T17:58:11.464Z,99.90
2023-02-17T18:00:40.924Z,99.90
2023-02-17T18:03:09.325Z,99.90
2023-02-17T18:05:37.997Z,99.90
2023-02-17T18:08:06.466Z,99.90
2023-02-17T18:10:35.078Z,99.90
2023-02-17T18:13:03.199Z,99.90
2023-02-17T18:15:31.759Z,99.90
2023-02-17T18:18:01.195Z,99.90
2023-02-17T18:20:29.769Z,99.90
2023-02-17T18:22:57.994Z,99.90
2023-02-17T18:25:26.524Z,99.90
2023-02-17T18:27:56.229Z,99.90
2023-02-17T18:30:25.120Z,99.90
2023-02-17T18:32:53.516Z,99.90
2023-02-17T18:35:23.268Z,99.90
2023-02-17T18:37:51.352Z,99.90
2023-02-17T18:40:21.522Z,99.90
2023-02-17T18:42:49.677Z,99.90
2023-02-17T18:45:18.168Z,99.90
2023-02-17T18:47:46.500Z,99.90
2023-02-17T18:50:15.339Z,99.90
2023-02-17T18:52:44.983Z,99.90
2023-02-17T18:55:13.999Z,99.90
2023-02-17T18:57:42.868Z,99.90
2023-02-17T19:00:14.101Z,99.90
2023-02-17T19:02:42.243Z,99.90
2023-02-17T19:05:11.779Z,99.90
2023-02-17T19:07:40.623Z,99.90
2023-02-17T19:10:11.232Z,99.90
2023-02-17T19:12:40.958Z,99.90
2023-02-17T19:15:09.154Z,99.90
2023-02-17T19:17:37.718Z,99.90
2023-02-17T19:20:06.342Z,99.90
2023-02-17T19:22:36.154Z,99.90
2023-02-17T19:25:04.990Z,99.90
2023-02-17T19:27:34.705Z,99.90
2023-02-17T19:30:02.829Z,99.90
2023-02-17T19:32:31.653Z,99.90
2023-02-17T19:34:59.783Z,99.90
2023-02-17T19:37:28.533Z,99.90
2023-02-17T19:39:56.658Z,99.90
2023-02-17T19:42:24.892Z,99.90
2023-02-17T19:44:54.333Z,99.90
2023-02-17T19:47:22.808Z,99.90
2023-02-17T19:49:50.910Z,99.90
2023-02-17T19:52:19.874Z,99.90
2023-02-17T19:54:49.651Z,99.90
2023-02-17T19:57:18.658Z,99.90
2023-02-17T19:59:46.770Z,99.90
2023-02-17T20:02:16.654Z,99.90
2023-02-17T20:04:45.547Z,99.90
2023-02-17T20:07:14.550Z,99.90
2023-02-17T20:09:43.390Z,99.90
2023-02-17T20:12:11.424Z,99.90
2023-02-17T20:14:39.932Z,99.90
2023-02-17T20:17:08.258Z,99.90
2023-02-17T20:19:39.217Z,99.90
2023-02-17T20:22:07.493Z,99.90
2023-02-17T20:24:37.717Z,99.90
2023-02-17T20:27:05.792Z,99.90
2023-02-17T20:29:35.582Z,99.90
2023-02-17T20:32:04.413Z,99.90
2023-02-17T20:34:33.436Z,99.90
2023-02-17T20:37:03.043Z,99.90
2023-02-17T20:39:31.460Z,99.90
2023-02-17T20:42:00.393Z,99.90
2023-02-17T20:44:29.236Z,99.90
2023-02-17T20:46:57.428Z,99.90
2023-02-17T20:49:26.211Z,99.90
2023-02-17T20:51:54.329Z,99.90
2023-02-17T20:54:25.577Z,99.90
2023-02-17T20:56:53.808Z,99.90
2023-02-17T20:59:22.360Z,99.90
2023-02-17T21:01:50.834Z,99.90
2023-02-17T21:04:19.016Z,99.90
2023-02-17T21:06:48.097Z,99.90
2023-02-17T21:09:16.965Z,99.90
2023-02-17T21:11:47.808Z,99.90
2023-02-17T21:14:16.106Z,99.90
2023-02-17T21:16:45.137Z,99.90
2023-02-17T21:19:13.428Z,99.90
2023-02-17T21:21:42.161Z,99.90
2023-02-17T21:24:10.225Z,99.90
2023-02-17T21:26:38.564Z,99.90
2023-02-17T21:29:08.023Z,99.90
2023-02-17T21:31:37.238Z,99.90
2023-02-17T21:34:05.875Z,99.90
2023-02-17T21:36:34.175Z,99.90
2023-02-17T21:39:03.743Z,99.90
2023-02-17T21:41:32.766Z,99.90
2023-02-17T21:44:18.507Z,99.90
2023-02-17T21:46:48.286Z,99.90
2023-02-17T21:49:16.382Z,99.90
2023-02-17T21:51:44.680Z,99.90
2023-02-17T21:54:12.713Z,99.90
2023-02-17T21:59:27.763Z,99.90
2023-02-17T22:01:57.329Z,99.90
2023-02-17T22:04:28.036Z,99.90
2023-02-17T22:06:56.304Z,99.90
2023-02-17T22:09:24.576Z,99.90
2023-02-17T22:11:52.616Z,99.90
2023-02-17T22:14:21.841Z,99.90
2023-02-17T22:16:50.009Z,99.90
2023-02-17T22:19:21.524Z,99.90
2023-02-17T22:21:49.931Z,99.90
2023-02-17T22:24:20.847Z,99.90
2023-02-17T22:26:49.351Z,99.90
2023-02-17T22:29:17.768Z,99.90
2023-02-17T22:31:46.773Z,99.90
2023-02-17T22:34:15.920Z,99.90
2023-02-17T22:36:45.368Z,99.90
2023-02-17T22:39:13.853Z,99.90
2023-02-17T22:41:42.049Z,99.90
2023-02-17T22:44:10.128Z,99.90
2023-02-17T22:46:38.658Z,99.90
2023-02-17T22:49:06.713Z,99.90
2023-02-17T22:51:36.218Z,99.90
2023-02-17T22:54:06.131Z,99.90
2023-02-17T22:56:34.967Z,99.90
2023-02-17T22:59:04.364Z,99.90
2023-02-17T23:01:34.764Z,99.90
2023-02-17T23:04:03.326Z,99.90
2023-02-17T23:06:32.783Z,99.90
2023-02-17T23:09:01.493Z,99.90
2023-02-17T23:11:51.074Z,99.90
2023-02-17T23:14:20.612Z,99.90
2023-02-17T23:16:49.015Z,99.90
2023-02-17T23:19:18.665Z,99.90
2023-02-17T23:21:47.397Z,99.90
2023-02-17T23:24:15.878Z,99.90
2023-02-17T23:26:45.438Z,99.90
2023-02-17T23:29:14.076Z,99.90
2023-02-17T23:31:42.392Z,99.90
2023-02-17T23:34:12.790Z,99.90
2023-02-17T23:36:40.988Z,99.90
2023-02-17T23:39:09.484Z,99.90
2023-02-17T23:41:38.200Z,99.90
2023-02-17T23:44:08.848Z,99.90
2023-02-17T23:46:37.088Z,99.90
2023-02-17T23:49:06.317Z,99.90
2023-02-17T23:51:34.626Z,99.90
2023-02-17T23:54:03.096Z,99.90
2023-02-17T23:56:32.324Z,99.90
2023-02-17T23:59:01.475Z,99.90
